Weather at Fumel Montayral Airport

Public forecast

Using degrees Celsius for public forecast. Weather courtesy of forecast.io.

Closest aviation weather report (METAR) to Fumel Montayral Airport

Report is more than 6 hours old.

Closest report is Agen-La Garenne Airport, 24.9 nm (46.2 km) SW.

2022/11/14 15:30 (retrieved 2 years ago)

LFBA 141530Z AUTO VRB02KT 9999 SCT040 BKN050 BKN090 14/12 Q1016 NOSIG

Closest aviation forecast (TAF) to Fumel Montayral Airport

Forecast is more than 12 hours old.

Closest forecast is Bergerac-Roumani√®re Airport, 30.1 nm (55.8 km) NW.

2023/02/22 18:56 (retrieved 1 year ago)

TAF LFBE 221700Z 2218/2318 27005KT 9999 BKN030 TEMPO 2218/2221 3000 SHRA BKN008 BKN015TCU TEMPO 2221/2318 3000 RA BKN005 OVC015